Terminal Aerodrome Forecast
Issued by NWS Wilmington, OH

Current Version | Previous Version | Text Only | Print | Product List | Glossary Off
Versions: 1 2 3 4 5 6 7 8 9 10 11 12 13 14 15 16 17 18 19 20

210
FTUS41 KILN 031956 AAA
TAFCMH
TAF AMD
KCMH 031956Z 0320/0418 27003KT P6SM OVC035
     FM032300 00000KT P6SM BKN035
     FM041100 VRB03KT P6SM FEW040 BKN150
     FM041500 12006KT P6SM VCSH BKN050=

USA.gov is the U.S. government's official web portal to all federal, state and local government web resources and services.